Search for airport 
image banner adimage banner adimage banner ad
image banner ad

KCID - The Eastern Iowa

Located in Cedar Rapids, United States

ICAO - CID, IATA - CID

Data provided by Airmate  

General information

Coordinates: N41°53'5" W91°42'39"
Elevation is 869 feet MSL.
Magnetic variation is 02° East
View others Airports in Iowa

Operational data

Special qualification required
Current time UTC:
Current local time:
Weather
METAR: KCID 181752Z VRB03KT 10SM CLR 31/15 A2983 RMK AO2 SLP094 T03060150 10306 20233 55000
TAF: KCID 181726Z 1818/1918 04006KT P6SM BKN150 PROB30 1906/1910 VRB20G30KT 3SM TSRA BKN040CB FM191500 34010KT P6SM SCT250
View NOTAMs / SUP AIP / TFR affecting this airport [VIEW]
Communications frequencies: [VIEW]

Runways:

RWY identifierQFULength (ft)Width (ft)SurfaceLDA (ft)
0991°8600150CONC8175
27271°8600150CONC8175
13136°6200150OTHER6200
31316°6200150OTHER6200

Airport contact information

Address: Cedar Rapids United States

Other aviation service providers

Flight schools

Iowa Flight Training

Iowa Flight Training

Satellite view of KCID